createdAt,value
2023-03-12T00:02:21.537Z,4.47
2023-03-12T00:04:48.522Z,3.73
2023-03-12T00:07:15.395Z,4.03
2023-03-12T00:09:42.311Z,4.23
2023-03-12T00:12:09.677Z,3.57
2023-03-12T00:14:36.541Z,4.03
2023-03-12T00:17:03.620Z,3.57
2023-03-12T00:19:30.428Z,3.90
2023-03-12T00:21:57.533Z,3.93
2023-03-12T00:24:24.289Z,3.50
2023-03-12T00:26:51.073Z,3.73
2023-03-12T00:29:17.895Z,3.47
2023-03-12T00:31:44.956Z,3.77
2023-03-12T00:34:11.952Z,2.70
2023-03-12T00:36:40.653Z,3.70
2023-03-12T00:39:07.722Z,3.13
2023-03-12T00:41:34.775Z,2.80
2023-03-12T00:44:01.591Z,3.17
2023-03-12T00:46:28.803Z,2.83
2023-03-12T00:48:55.676Z,3.07
2023-03-12T00:51:22.606Z,2.63
2023-03-12T00:53:49.505Z,2.57
2023-03-12T00:56:16.623Z,2.43
2023-03-12T00:58:43.683Z,2.67
2023-03-12T01:01:10.982Z,2.87
2023-03-12T01:03:38.771Z,2.57
2023-03-12T01:06:06.448Z,2.40
2023-03-12T01:08:33.468Z,2.37
2023-03-12T01:11:00.453Z,2.57
2023-03-12T01:13:27.374Z,2.60
2023-03-12T01:15:54.123Z,2.47
2023-03-12T01:18:20.969Z,3.10
2023-03-12T01:20:48.046Z,2.87
2023-03-12T01:23:15.112Z,2.57
2023-03-12T01:25:42.177Z,3.27
2023-03-12T01:28:08.940Z,2.63
2023-03-12T01:30:35.795Z,2.77
2023-03-12T01:33:02.561Z,2.23
2023-03-12T01:35:29.385Z,3.00
2023-03-12T01:37:56.795Z,2.80
2023-03-12T01:40:28.887Z,2.60
2023-03-12T01:42:58.158Z,3.17
2023-03-12T01:45:58.711Z,2.50
2023-03-12T01:48:28.047Z,3.27
2023-03-12T01:50:55.290Z,2.30
2023-03-12T01:53:22.747Z,2.67
2023-03-12T01:55:50.544Z,3.13
2023-03-12T01:58:17.952Z,3.20
2023-03-12T02:00:45.342Z,3.10
2023-03-12T02:03:13.805Z,3.17
2023-03-12T02:05:54.699Z,3.30
2023-03-12T02:08:23.669Z,3.37
2023-03-12T02:10:51.158Z,3.10
2023-03-12T02:13:18.420Z,3.53
2023-03-12T02:15:47.796Z,3.30
2023-03-12T02:18:19.144Z,3.17
2023-03-12T02:21:20.049Z,3.17
2023-03-12T02:24:11.701Z,3.37
2023-03-12T02:26:39.758Z,3.40
2023-03-12T02:29:09.293Z,4.30
2023-03-12T02:31:44.971Z,3.40
2023-03-12T02:34:12.544Z,4.03
2023-03-12T02:36:39.621Z,3.83
2023-03-12T02:39:06.822Z,3.00
2023-03-12T02:41:41.462Z,3.50
2023-03-12T02:44:13.430Z,3.37
2023-03-12T02:46:47.093Z,3.20
2023-03-12T02:49:15.922Z,3.60
2023-03-12T02:51:44.001Z,2.93
2023-03-12T02:54:12.692Z,2.90
2023-03-12T02:56:40.444Z,2.60
2023-03-12T02:59:08.592Z,2.93
2023-03-12T03:01:38.650Z,2.07
2023-03-12T03:04:06.931Z,2.23
2023-03-12T03:06:35.383Z,2.70
2023-03-12T03:09:02.734Z,2.33
2023-03-12T03:11:30.296Z,2.10
2023-03-12T03:13:57.253Z,2.40
2023-03-12T03:16:24.727Z,2.23
2023-03-12T03:18:52.189Z,2.30
2023-03-12T03:21:19.054Z,1.80
2023-03-12T03:23:47.739Z,1.70
2023-03-12T03:26:16.428Z,1.73
2023-03-12T03:28:45.790Z,2.10
2023-03-12T03:31:13.457Z,1.90
2023-03-12T03:33:41.987Z,1.70
2023-03-12T03:36:10.452Z,1.90
2023-03-12T03:38:47.010Z,1.83
2023-03-12T03:41:14.056Z,1.80
2023-03-12T03:43:43.608Z,1.60
2023-03-12T03:46:12.732Z,2.03
2023-03-12T03:48:42.773Z,2.00
2023-03-12T03:51:11.489Z,2.20
2023-03-12T03:53:41.977Z,1.70
2023-03-12T03:56:11.591Z,1.47
2023-03-12T03:58:41.930Z,1.83
2023-03-12T04:01:08.869Z,1.60
2023-03-12T04:03:35.945Z,1.70
2023-03-12T04:06:06.049Z,1.47
2023-03-12T04:08:35.624Z,1.77
2023-03-12T04:11:14.931Z,1.70
2023-03-12T04:13:42.625Z,1.90
2023-03-12T04:16:10.613Z,2.23
2023-03-12T04:18:37.671Z,1.60
2023-03-12T04:21:07.402Z,1.33
2023-03-12T04:23:35.316Z,1.97
2023-03-12T04:26:03.411Z,2.13
2023-03-12T04:28:30.454Z,2.40
2023-03-12T04:31:03.521Z,1.83
2023-03-12T04:33:38.843Z,2.50
2023-03-12T04:36:07.795Z,3.50
2023-03-12T04:38:36.860Z,2.67
2023-03-12T04:41:07.932Z,1.90
2023-03-12T04:43:37.237Z,2.00
2023-03-12T04:46:05.295Z,2.30
2023-03-12T04:48:32.430Z,1.63
2023-03-12T04:50:59.206Z,1.77
2023-03-12T04:53:26.154Z,1.77
2023-03-12T04:55:53.288Z,1.87
2023-03-12T04:58:20.818Z,1.80
2023-03-12T05:00:48.918Z,1.93
2023-03-12T05:03:16.842Z,2.40
2023-03-12T05:05:45.373Z,2.00
2023-03-12T05:08:12.543Z,1.70
2023-03-12T05:10:39.557Z,1.60
2023-03-12T05:13:18.620Z,1.67
2023-03-12T05:15:47.547Z,1.80
2023-03-12T05:18:15.085Z,1.60
2023-03-12T05:20:42.016Z,1.80
2023-03-12T05:23:09.479Z,1.43
2023-03-12T05:25:40.500Z,1.30
2023-03-12T05:28:07.754Z,1.30
2023-03-12T05:30:35.766Z,1.10
2023-03-12T05:33:02.733Z,1.37
2023-03-12T05:35:29.504Z,1.33
2023-03-12T05:37:56.331Z,1.30
2023-03-12T05:40:23.666Z,1.50
2023-03-12T05:42:50.444Z,1.23
2023-03-12T05:45:19.697Z,1.00
2023-03-12T05:47:50.059Z,2.17
2023-03-12T05:50:17.846Z,1.50
2023-03-12T05:52:44.810Z,1.23
2023-03-12T05:55:12.053Z,1.90
2023-03-12T05:57:38.801Z,2.43
2023-03-12T06:00:06.819Z,2.40
2023-03-12T06:02:40.267Z,2.10
2023-03-12T06:05:20.139Z,1.90
2023-03-12T06:07:46.968Z,2.43
2023-03-12T06:10:13.764Z,1.60
2023-03-12T06:12:40.709Z,2.07
2023-03-12T06:15:08.006Z,1.60
2023-03-12T06:17:35.075Z,1.67
2023-03-12T06:20:01.881Z,1.80
2023-03-12T06:22:29.963Z,1.67
2023-03-12T06:24:56.922Z,1.60
2023-03-12T06:27:24.060Z,2.10
2023-03-12T06:29:51.460Z,1.80
2023-03-12T06:32:18.501Z,2.03
2023-03-12T06:34:45.423Z,1.80
2023-03-12T06:37:12.294Z,1.80
2023-03-12T06:39:39.199Z,1.63
2023-03-12T06:42:06.153Z,2.23
2023-03-12T06:44:32.975Z,2.10
2023-03-12T06:46:59.719Z,1.93
2023-03-12T06:49:27.370Z,2.13
2023-03-12T06:51:55.970Z,2.67
2023-03-12T06:54:22.765Z,2.20
2023-03-12T06:56:49.513Z,1.83
2023-03-12T06:59:16.327Z,2.00
2023-03-12T07:01:43.049Z,2.47
2023-03-12T07:04:09.913Z,2.43
2023-03-12T07:06:36.654Z,2.17
2023-03-12T07:09:04.996Z,2.27
2023-03-12T07:11:32.080Z,2.77
2023-03-12T07:13:58.941Z,2.20
2023-03-12T07:16:25.800Z,4.50
2023-03-12T07:18:52.579Z,5.60
2023-03-12T07:21:23.706Z,3.57
2023-03-12T07:23:51.121Z,2.60
2023-03-12T07:26:19.093Z,2.20
2023-03-12T07:28:46.133Z,2.30
2023-03-12T07:31:12.906Z,2.90
2023-03-12T07:33:39.802Z,2.80
2023-03-12T07:36:07.187Z,2.73
2023-03-12T07:38:34.053Z,3.10
2023-03-12T07:41:01.283Z,2.60
2023-03-12T07:43:28.204Z,3.60
2023-03-12T07:45:55.354Z,3.13
2023-03-12T07:48:22.211Z,3.23
2023-03-12T07:50:49.144Z,3.57
2023-03-12T07:53:16.802Z,3.00
2023-03-12T07:55:46.131Z,3.70
2023-03-12T07:58:13.849Z,3.80
2023-03-12T08:00:40.898Z,3.20
2023-03-12T08:03:08.170Z,3.87
2023-03-12T08:05:35.390Z,3.70
2023-03-12T08:08:02.294Z,4.40
2023-03-12T08:10:29.242Z,3.10
2023-03-12T08:12:56.163Z,2.90
2023-03-12T08:15:23.007Z,3.07
2023-03-12T08:17:49.829Z,3.50
2023-03-12T08:20:17.460Z,3.53
2023-03-12T08:22:44.203Z,2.97
2023-03-12T08:25:11.376Z,3.87
2023-03-12T08:27:38.266Z,3.40
2023-03-12T08:30:06.544Z,3.20
2023-03-12T08:32:33.565Z,3.33
2023-03-12T08:35:00.375Z,3.23
2023-03-12T08:37:27.196Z,3.10
2023-03-12T08:39:54.550Z,3.00
2023-03-12T08:42:21.442Z,2.87
2023-03-12T08:44:48.218Z,3.40
2023-03-12T08:47:15.102Z,3.23
2023-03-12T08:49:41.815Z,3.17
2023-03-12T08:52:08.691Z,3.07
2023-03-12T08:54:35.488Z,3.50
2023-03-12T08:57:02.490Z,3.57
2023-03-12T08:59:29.259Z,3.13
2023-03-12T09:01:56.508Z,3.30
2023-03-12T09:04:23.373Z,2.90
2023-03-12T09:06:50.168Z,3.60
2023-03-12T09:09:17.170Z,3.23
2023-03-12T09:11:44.015Z,4.03
2023-03-12T09:16:58.343Z,3.40
2023-03-12T09:19:25.206Z,3.83
2023-03-12T09:21:51.966Z,3.90
2023-03-12T09:24:18.737Z,3.40
2023-03-12T09:26:45.597Z,3.97
2023-03-12T09:29:12.358Z,3.73
2023-03-12T09:31:39.152Z,3.93
2023-03-12T09:34:05.974Z,4.03
2023-03-12T09:36:33.265Z,3.63
2023-03-12T09:39:00.772Z,3.70
2023-03-12T09:41:34.554Z,3.40
2023-03-12T09:44:17.814Z,3.97
2023-03-12T09:46:53.414Z,3.90
2023-03-12T09:49:46.562Z,3.50
2023-03-12T09:52:25.367Z,4.20
2023-03-12T09:55:15.779Z,3.70
2023-03-12T09:57:44.207Z,3.80
2023-03-12T10:00:37.165Z,3.67
2023-03-12T10:03:45.136Z,3.90
2023-03-12T10:06:16.134Z,3.50
2023-03-12T10:09:07.176Z,3.60
2023-03-12T10:11:59.582Z,4.10
2023-03-12T10:14:59.605Z,3.67
2023-03-12T10:17:53.309Z,4.00
2023-03-12T10:20:48.105Z,4.83
2023-03-12T10:23:43.212Z,4.07
2023-03-12T10:26:34.246Z,3.80
2023-03-12T10:29:09.978Z,3.83
2023-03-12T10:31:48.355Z,4.20
2023-03-12T10:34:24.292Z,4.13
2023-03-12T10:36:51.632Z,4.63
2023-03-12T10:39:20.401Z,3.97
2023-03-12T10:41:48.830Z,4.70
2023-03-12T10:44:24.103Z,4.33
2023-03-12T10:47:25.491Z,4.60
2023-03-12T10:49:53.390Z,3.93
2023-03-12T10:52:22.388Z,5.27
2023-03-12T10:54:51.725Z,4.50
2023-03-12T10:57:20.839Z,4.00
2023-03-12T10:59:50.105Z,4.40
2023-03-12T11:02:38.365Z,4.57
2023-03-12T11:05:37.193Z,5.53
2023-03-12T11:08:10.311Z,5.43
2023-03-12T11:10:45.600Z,6.70
2023-03-12T11:13:34.768Z,5.20
2023-03-12T11:16:17.971Z,5.80
2023-03-12T11:19:01.325Z,4.97
2023-03-12T11:21:29.630Z,5.10
2023-03-12T11:23:59.425Z,4.40
2023-03-12T11:26:33.781Z,5.90
2023-03-12T11:29:33.126Z,3.57
2023-03-12T11:32:24.692Z,3.40
2023-03-12T11:34:53.089Z,4.10
2023-03-12T11:37:43.872Z,3.83
2023-03-12T11:40:26.904Z,3.70
2023-03-12T11:43:08.643Z,3.80
2023-03-12T11:45:54.078Z,4.07
2023-03-12T11:48:42.755Z,3.60
2023-03-12T11:51:32.361Z,3.10
2023-03-12T11:54:20.678Z,4.23
2023-03-12T11:57:19.125Z,7.10
2023-03-12T11:59:54.800Z,4.43
2023-03-12T12:02:40.266Z,3.83
2023-03-12T12:05:21.244Z,3.97
2023-03-12T12:07:57.199Z,4.00
2023-03-12T12:10:33.042Z,3.80
2023-03-12T12:13:14.532Z,3.80
2023-03-12T12:16:15.594Z,4.90
2023-03-12T12:19:27.411Z,3.80
2023-03-12T12:22:25.873Z,3.17
2023-03-12T12:24:58.848Z,3.40
2023-03-12T12:27:29.176Z,4.27
2023-03-12T12:30:11.064Z,3.33
2023-03-12T12:32:59.510Z,3.00
2023-03-12T12:35:41.330Z,3.20
2023-03-12T12:38:17.952Z,2.63
2023-03-12T12:40:49.381Z,2.70
2023-03-12T12:43:30.448Z,2.70
2023-03-12T12:46:02.127Z,2.67
2023-03-12T12:48:32.462Z,2.63
2023-03-12T12:51:01.193Z,2.60
2023-03-12T12:53:40.727Z,3.00
2023-03-12T12:56:14.172Z,2.90
2023-03-12T12:59:03.254Z,2.70
2023-03-12T13:01:32.402Z,3.03
2023-03-12T13:04:09.539Z,2.77
2023-03-12T13:07:01.314Z,2.50
2023-03-12T13:09:46.383Z,2.97
2023-03-12T13:12:25.109Z,2.27
2023-03-12T13:14:53.941Z,2.40
2023-03-12T13:17:22.417Z,2.27
2023-03-12T13:20:00.648Z,1.63
2023-03-12T13:22:39.209Z,1.90
2023-03-12T13:25:33.969Z,1.97
2023-03-12T13:28:22.040Z,1.97
2023-03-12T13:30:50.641Z,2.20
2023-03-12T13:33:21.708Z,2.10
2023-03-12T13:36:33.613Z,2.40
2023-03-12T13:39:06.314Z,1.67
2023-03-12T13:41:45.063Z,1.90
2023-03-12T13:44:23.834Z,1.80
2023-03-12T13:47:19.749Z,1.40
2023-03-12T13:49:56.270Z,1.83
2023-03-12T13:52:27.010Z,1.70
2023-03-12T13:55:22.098Z,1.50
2023-03-12T13:58:27.654Z,1.60
2023-03-12T14:01:03.920Z,1.50
2023-03-12T14:03:44.853Z,1.20
2023-03-12T14:06:14.781Z,0.80
2023-03-12T14:09:18.565Z,1.23
2023-03-12T14:11:58.223Z,1.37
2023-03-12T14:14:34.388Z,1.53
2023-03-12T14:17:02.498Z,1.43
2023-03-12T14:19:35.728Z,1.43
2023-03-12T14:22:07.734Z,1.50
2023-03-12T14:24:48.903Z,1.53
2023-03-12T14:27:21.429Z,1.43
2023-03-12T14:29:57.781Z,1.73
2023-03-12T14:32:28.889Z,1.70
2023-03-12T14:35:05.634Z,0.97
2023-03-12T14:37:39.467Z,1.13
2023-03-12T14:40:20.581Z,1.10
2023-03-12T14:42:47.919Z,1.10
2023-03-12T14:45:18.619Z,1.50
2023-03-12T14:47:48.642Z,1.20
2023-03-12T14:50:49.669Z,1.50
2023-03-12T14:53:26.809Z,1.43
2023-03-12T14:56:05.674Z,1.73
2023-03-12T14:58:34.293Z,1.43
2023-03-12T15:01:04.672Z,1.47
2023-03-12T15:03:39.451Z,1.67
2023-03-12T15:06:21.753Z,1.67
2023-03-12T15:08:49.066Z,1.80
2023-03-12T15:11:22.074Z,2.00
2023-03-12T15:13:50.011Z,1.90
2023-03-12T15:16:17.250Z,1.47
2023-03-12T15:18:44.393Z,2.50
2023-03-12T15:21:11.356Z,2.70
2023-03-12T15:23:39.668Z,2.47
2023-03-12T15:26:21.184Z,2.20
2023-03-12T15:29:05.436Z,2.00
2023-03-12T15:31:44.447Z,1.70
2023-03-12T15:34:13.326Z,1.37
2023-03-12T15:36:51.739Z,1.33
2023-03-12T15:39:29.700Z,1.53
2023-03-12T15:42:02.034Z,2.37
2023-03-12T15:44:42.580Z,2.20
2023-03-12T15:47:30.567Z,1.90
2023-03-12T15:50:02.280Z,1.30
2023-03-12T15:52:34.998Z,1.90
2023-03-12T15:55:03.311Z,2.87
2023-03-12T15:57:31.054Z,3.40
2023-03-12T16:00:14.687Z,3.30
2023-03-12T16:02:49.720Z,2.40
2023-03-12T16:05:18.408Z,1.60
2023-03-12T16:07:45.360Z,1.40
2023-03-12T16:10:17.595Z,1.80
2023-03-12T16:12:44.866Z,1.90
2023-03-12T16:15:25.063Z,1.40
2023-03-12T16:17:51.825Z,1.50
2023-03-12T16:20:19.943Z,1.63
2023-03-12T16:22:46.715Z,1.43
2023-03-12T16:25:13.600Z,1.37
2023-03-12T16:27:49.247Z,2.13
2023-03-12T16:30:24.106Z,2.00
2023-03-12T16:32:50.985Z,2.00
2023-03-12T16:35:19.284Z,2.97
2023-03-12T16:37:47.083Z,3.60
2023-03-12T16:40:23.949Z,2.83
2023-03-12T16:43:02.614Z,2.87
2023-03-12T16:45:29.905Z,2.90
2023-03-12T16:48:02.158Z,1.90
2023-03-12T16:50:29.767Z,1.47
2023-03-12T16:52:57.961Z,2.20
2023-03-12T16:55:32.019Z,1.90
2023-03-12T16:58:01.233Z,2.10
2023-03-12T17:00:30.547Z,1.87
2023-03-12T17:02:58.225Z,1.93
2023-03-12T17:05:26.752Z,2.17
2023-03-12T17:07:54.220Z,2.80
2023-03-12T17:10:21.874Z,1.80
2023-03-12T17:12:48.861Z,1.60
2023-03-12T17:15:27.382Z,2.13
2023-03-12T17:17:55.757Z,1.63
2023-03-12T17:20:24.573Z,1.50
2023-03-12T17:22:51.373Z,1.30
2023-03-12T17:25:23.988Z,1.40
2023-03-12T17:27:51.136Z,1.80
2023-03-12T17:30:18.915Z,1.97
2023-03-12T17:32:45.739Z,1.67
2023-03-12T17:35:14.160Z,1.70
2023-03-12T17:37:40.953Z,2.57
2023-03-12T17:40:09.766Z,2.37
2023-03-12T17:42:37.911Z,1.60
2023-03-12T17:45:06.723Z,1.77
2023-03-12T17:47:33.852Z,2.13
2023-03-12T17:50:00.627Z,2.17
2023-03-12T17:52:27.541Z,2.23
2023-03-12T17:54:54.422Z,2.80
2023-03-12T17:57:21.236Z,3.40
2023-03-12T17:59:47.979Z,4.80
2023-03-12T18:02:14.806Z,5.60
2023-03-12T18:04:41.603Z,5.30
2023-03-12T18:07:08.617Z,3.77
2023-03-12T18:09:35.797Z,3.50
2023-03-12T18:12:02.714Z,2.40
2023-03-12T18:14:29.518Z,3.00
2023-03-12T18:16:56.322Z,2.43
2023-03-12T18:19:23.647Z,2.43
2023-03-12T18:21:50.443Z,2.53
2023-03-12T18:24:17.251Z,3.60
2023-03-12T18:26:45.276Z,2.67
2023-03-12T18:29:12.821Z,2.97
2023-03-12T18:31:39.783Z,2.60
2023-03-12T18:34:06.597Z,2.13
2023-03-12T18:36:33.363Z,2.47
2023-03-12T18:39:04.385Z,2.63
2023-03-12T18:41:32.873Z,2.40
2023-03-12T18:44:00.363Z,1.90
2023-03-12T18:46:28.018Z,1.93
2023-03-12T18:48:56.470Z,1.70
2023-03-12T18:51:23.255Z,2.07
2023-03-12T18:53:50.041Z,2.23
2023-03-12T18:56:16.764Z,2.73
2023-03-12T18:58:43.493Z,3.10
2023-03-12T19:01:10.730Z,3.57
2023-03-12T19:03:37.562Z,2.17
2023-03-12T19:06:07.182Z,1.93
2023-03-12T19:08:35.005Z,2.30
2023-03-12T19:11:05.102Z,2.10
2023-03-12T19:13:32.156Z,2.30
2023-03-12T19:16:01.885Z,2.50
2023-03-12T19:18:29.194Z,2.30
2023-03-12T19:20:56.270Z,1.83
2023-03-12T19:23:23.278Z,1.67
2023-03-12T19:25:50.291Z,2.20
2023-03-12T19:28:17.065Z,2.60
2023-03-12T19:30:43.852Z,2.93
2023-03-12T19:33:10.902Z,2.10
2023-03-12T19:35:40.457Z,2.10
2023-03-12T19:38:07.671Z,2.23
2023-03-12T19:40:34.902Z,2.20
2023-03-12T19:43:02.759Z,2.70
2023-03-12T19:45:29.823Z,2.53
2023-03-12T19:47:56.661Z,2.53
2023-03-12T19:50:24.048Z,3.07
2023-03-12T19:52:50.963Z,3.47
2023-03-12T19:55:17.813Z,2.50
2023-03-12T19:57:44.680Z,2.03
2023-03-12T20:00:12.228Z,2.03
2023-03-12T20:02:39.531Z,3.73
2023-03-12T20:05:07.086Z,2.40
2023-03-12T20:07:33.861Z,2.70
2023-03-12T20:10:00.635Z,2.23
2023-03-12T20:12:27.453Z,2.70
2023-03-12T20:14:54.179Z,2.93
2023-03-12T20:17:20.935Z,3.93
2023-03-12T20:19:47.668Z,2.90
2023-03-12T20:22:14.692Z,2.47
2023-03-12T20:24:41.473Z,2.20
2023-03-12T20:27:08.232Z,2.00
2023-03-12T20:29:35.085Z,2.13
2023-03-12T20:32:01.926Z,2.23
2023-03-12T20:34:28.751Z,1.87
2023-03-12T20:36:55.491Z,2.60
2023-03-12T20:39:22.360Z,1.73
2023-03-12T20:41:49.441Z,1.90
2023-03-12T20:44:16.704Z,1.57
2023-03-12T20:46:43.495Z,1.47
2023-03-12T20:49:10.369Z,1.87
2023-03-12T20:51:37.130Z,1.90
2023-03-12T20:54:04.050Z,1.87
2023-03-12T20:56:30.785Z,1.50
2023-03-12T20:58:59.191Z,1.80
2023-03-12T21:01:26.009Z,1.40
2023-03-12T21:03:55.512Z,1.77
2023-03-12T21:06:22.468Z,1.50
2023-03-12T21:08:49.232Z,1.77
2023-03-12T21:11:16.168Z,2.40
2023-03-12T21:13:42.974Z,1.93
2023-03-12T21:16:11.646Z,2.13
2023-03-12T21:18:38.417Z,1.70
2023-03-12T21:21:08.593Z,2.00
2023-03-12T21:23:35.808Z,2.00
2023-03-12T21:26:07.129Z,1.60
2023-03-12T21:28:35.443Z,2.00
2023-03-12T21:31:11.343Z,2.23
2023-03-12T21:33:38.191Z,1.87
2023-03-12T21:36:07.190Z,2.07
2023-03-12T21:38:37.852Z,1.70
2023-03-12T21:41:06.760Z,1.43
2023-03-12T21:43:33.499Z,2.00
2023-03-12T21:46:07.995Z,1.83
2023-03-12T21:48:35.744Z,2.33
2023-03-12T21:51:07.890Z,1.80
2023-03-12T21:53:35.956Z,2.03
2023-03-12T21:56:03.762Z,1.73
2023-03-12T21:58:31.788Z,1.60
2023-03-12T22:01:13.109Z,2.33
2023-03-12T22:03:40.871Z,1.60
2023-03-12T22:06:08.209Z,1.63
2023-03-12T22:08:35.589Z,1.70
2023-03-12T22:11:03.785Z,2.00
2023-03-12T22:13:30.599Z,2.03
2023-03-12T22:16:01.557Z,2.37
2023-03-12T22:18:29.121Z,2.00
2023-03-12T22:21:01.666Z,2.13
2023-03-12T22:23:28.970Z,2.50
2023-03-12T22:25:56.050Z,2.10
2023-03-12T22:28:25.715Z,2.00
2023-03-12T22:31:07.239Z,2.23
2023-03-12T22:33:35.936Z,1.97
2023-03-12T22:36:11.576Z,2.37
2023-03-12T22:38:39.666Z,2.33
2023-03-12T22:41:27.605Z,1.90
2023-03-12T22:43:56.976Z,2.10
2023-03-12T22:46:25.544Z,2.27
2023-03-12T22:48:55.344Z,2.40
2023-03-12T22:51:22.847Z,2.30
2023-03-12T22:53:49.640Z,1.70
2023-03-12T22:56:16.702Z,2.73
2023-03-12T22:58:43.527Z,2.00
2023-03-12T23:01:21.667Z,1.80
2023-03-12T23:03:49.516Z,2.27
2023-03-12T23:06:19.164Z,2.33
2023-03-12T23:08:47.829Z,2.23
2023-03-12T23:11:15.639Z,1.93
2023-03-12T23:13:44.536Z,2.53
2023-03-12T23:16:15.045Z,2.20
2023-03-12T23:18:42.887Z,2.03
2023-03-12T23:21:12.494Z,2.27
2023-03-12T23:23:41.187Z,2.60
2023-03-12T23:26:08.606Z,2.00
2023-03-12T23:28:35.395Z,2.13
2023-03-12T23:31:05.653Z,2.10
2023-03-12T23:33:33.707Z,2.17
2023-03-12T23:36:16.684Z,2.00
2023-03-12T23:38:44.464Z,2.37
2023-03-12T23:41:14.296Z,2.30
2023-03-12T23:43:41.241Z,2.20
2023-03-12T23:46:09.219Z,2.27
2023-03-12T23:48:37.728Z,2.50
2023-03-12T23:51:12.754Z,2.30
2023-03-12T23:53:41.119Z,1.80
2023-03-12T23:56:10.426Z,1.70
2023-03-12T23:58:37.528Z,2.20
